Plaza Tower, Tennessee
Current Conditions -  °F | °C
As of 2:53 PM on Friday 19 Dec 2014 (Local Time) from KTYS Reporting Station
Overcast Overcast  
Wind Chill: 42°   Ceiling: 18000
Heat Index: 46°   Visibility: 10mi
Dew Point: 27°   Wind: 7mph
Humidity: 47%   Direction: 60°ENE
Pressure: 30.15"   Gusts: NA
Location:  35.9605°N, 83.9208°W
Report Text: KTYS 191953Z 06006KT 10SM BKN180 OVC250 08/M03 A3015 RMK AO2 SLP213 T00781028
Loading
Personal Weather Stations






























Interactive Weather Map New forecast layout! Learn more

10-Day Weather Forecast

Advertisements
Track Severe Weather on mobile